createdAt,value
2018-08-16T00:01:01.989Z,99.90
2018-08-16T00:03:34.593Z,99.90
2018-08-16T00:06:07.339Z,99.90
2018-08-16T00:08:40.108Z,99.90
2018-08-16T00:11:12.694Z,99.90
2018-08-16T00:13:45.032Z,99.90
2018-08-16T00:16:16.745Z,99.90
2018-08-16T00:18:47.940Z,99.90
2018-08-16T00:21:19.783Z,99.90
2018-08-16T00:23:52.611Z,99.90
2018-08-16T00:26:24.732Z,99.90
2018-08-16T00:28:56.408Z,99.90
2018-08-16T00:31:27.338Z,99.90
2018-08-16T00:33:58.318Z,99.90
2018-08-16T00:36:30.300Z,99.90
2018-08-16T00:39:02.869Z,99.90
2018-08-16T00:41:34.950Z,99.90
2018-08-16T00:44:06.730Z,99.90
2018-08-16T00:46:39.772Z,99.90
2018-08-16T00:49:12.288Z,99.90
2018-08-16T00:51:44.703Z,99.90
2018-08-16T00:54:17.517Z,99.90
2018-08-16T00:56:49.800Z,99.90
2018-08-16T00:59:22.787Z,99.90
2018-08-16T01:01:59.663Z,99.90
2018-08-16T01:04:31.975Z,99.90
2018-08-16T01:07:03.838Z,99.90
2018-08-16T01:09:36.280Z,99.90
2018-08-16T01:12:08.938Z,99.90
2018-08-16T01:14:40.801Z,99.90
2018-08-16T01:17:13.618Z,99.90
2018-08-16T01:19:46.311Z,99.90
2018-08-16T01:22:18.676Z,99.90
2018-08-16T01:24:54.535Z,99.90
2018-08-16T01:27:26.469Z,99.90
2018-08-16T01:29:58.675Z,99.90
2018-08-16T01:32:30.632Z,99.90
2018-08-16T01:35:02.368Z,99.90
2018-08-16T01:37:34.058Z,99.90
2018-08-16T01:40:07.998Z,99.90
2018-08-16T01:42:40.771Z,99.90
2018-08-16T01:45:12.877Z,99.90
2018-08-16T01:47:45.056Z,99.90
2018-08-16T01:50:17.066Z,99.90
2018-08-16T01:52:50.169Z,99.90
2018-08-16T01:55:22.211Z,99.90
2018-08-16T01:57:54.829Z,99.90
2018-08-16T02:00:27.263Z,99.90
2018-08-16T02:02:59.300Z,99.90
2018-08-16T02:05:31.168Z,99.90
2018-08-16T02:08:03.270Z,99.90
2018-08-16T02:10:34.631Z,99.90
2018-08-16T02:13:06.155Z,99.90
2018-08-16T02:15:37.341Z,99.90
2018-08-16T02:18:10.110Z,99.90
2018-08-16T02:20:41.494Z,99.90
2018-08-16T02:23:13.356Z,99.90
2018-08-16T02:25:44.501Z,99.90
2018-08-16T02:28:16.440Z,99.90
2018-08-16T02:30:48.124Z,99.90
2018-08-16T02:33:19.989Z,99.90
2018-08-16T02:35:51.635Z,99.90
2018-08-16T02:38:23.622Z,99.90
2018-08-16T02:40:56.456Z,99.90
2018-08-16T02:43:28.381Z,99.90
2018-08-16T02:46:00.621Z,99.90
2018-08-16T02:48:32.019Z,99.90
2018-08-16T02:51:06.689Z,99.90
2018-08-16T02:53:37.663Z,99.90
2018-08-16T02:56:10.253Z,99.90
2018-08-16T02:58:43.169Z,99.90
2018-08-16T03:01:15.009Z,99.90
2018-08-16T03:03:47.330Z,99.90
2018-08-16T03:06:19.683Z,99.90
2018-08-16T03:08:54.138Z,99.90
2018-08-16T03:11:25.780Z,99.90
2018-08-16T03:14:00.236Z,99.90
2018-08-16T03:16:32.779Z,99.90
2018-08-16T03:19:06.474Z,99.90
2018-08-16T03:21:41.408Z,99.90
2018-08-16T03:24:13.028Z,99.90
2018-08-16T03:26:45.305Z,99.90
2018-08-16T03:29:18.502Z,99.90
2018-08-16T03:31:50.310Z,99.90
2018-08-16T03:34:22.972Z,99.90
2018-08-16T03:36:55.974Z,99.90
2018-08-16T03:39:28.343Z,99.90
2018-08-16T03:42:01.126Z,99.90
2018-08-16T03:44:33.098Z,99.90
2018-08-16T03:47:05.785Z,99.90
2018-08-16T03:49:37.531Z,99.90
2018-08-16T03:52:09.667Z,99.90
2018-08-16T03:54:47.895Z,99.90
2018-08-16T03:57:19.515Z,99.90
2018-08-16T03:59:52.191Z,99.90
2018-08-16T04:02:24.690Z,99.90
2018-08-16T04:04:57.638Z,99.90
2018-08-16T04:07:31.965Z,99.90
2018-08-16T04:10:04.842Z,99.90
2018-08-16T04:12:36.782Z,99.90
2018-08-16T04:15:09.260Z,99.90
2018-08-16T04:17:41.682Z,99.90
2018-08-16T04:20:15.458Z,99.90
2018-08-16T04:22:48.757Z,99.90
2018-08-16T04:25:25.876Z,99.90
2018-08-16T04:27:57.991Z,99.90
2018-08-16T04:30:30.438Z,99.90
2018-08-16T04:33:03.139Z,99.90
2018-08-16T04:35:39.012Z,99.90
2018-08-16T04:38:11.260Z,99.90
2018-08-16T04:40:43.534Z,99.90
2018-08-16T04:43:14.580Z,99.90
2018-08-16T04:45:45.589Z,99.90
2018-08-16T04:48:17.049Z,99.90
2018-08-16T04:50:49.717Z,99.90
2018-08-16T04:53:21.752Z,99.90
2018-08-16T04:55:53.866Z,99.90
2018-08-16T04:58:26.298Z,99.90
2018-08-16T05:00:59.389Z,99.90
2018-08-16T05:03:31.909Z,99.90
2018-08-16T05:06:04.794Z,99.90
2018-08-16T05:08:36.486Z,99.90
2018-08-16T05:11:09.373Z,99.90
2018-08-16T05:13:41.777Z,99.90
2018-08-16T05:16:13.055Z,99.90
2018-08-16T05:18:44.714Z,99.90
2018-08-16T05:21:20.099Z,99.50
2018-08-16T05:23:52.218Z,99.40
2018-08-16T05:26:25.287Z,99.40
2018-08-16T05:28:58.833Z,98.60
2018-08-16T05:31:30.990Z,97.90
2018-08-16T05:34:03.540Z,97.80
2018-08-16T05:36:35.370Z,97.80
2018-08-16T05:39:09.456Z,97.40
2018-08-16T05:41:41.131Z,96.90
2018-08-16T05:44:12.734Z,96.60
2018-08-16T05:46:44.360Z,96.30
2018-08-16T05:49:16.578Z,96.00
2018-08-16T05:51:49.278Z,95.50
2018-08-16T05:54:21.377Z,95.20
2018-08-16T05:56:54.769Z,95.40
2018-08-16T05:59:26.886Z,95.30
2018-08-16T06:01:58.649Z,95.20
2018-08-16T06:04:29.518Z,95.20
2018-08-16T06:06:59.744Z,95.00
2018-08-16T06:09:29.924Z,94.50
2018-08-16T06:11:59.860Z,94.30
2018-08-16T06:14:30.319Z,94.00
2018-08-16T06:17:00.987Z,94.10
2018-08-16T06:19:31.400Z,94.10
2018-08-16T06:22:01.947Z,94.00
2018-08-16T06:24:32.589Z,93.70
2018-08-16T06:27:02.875Z,93.20
2018-08-16T06:29:32.961Z,92.80
2018-08-16T06:32:03.060Z,92.60
2018-08-16T06:34:33.441Z,91.70
2018-08-16T06:37:03.907Z,91.20
2018-08-16T06:39:34.655Z,91.00
2018-08-16T06:42:04.715Z,90.80
2018-08-16T06:44:34.713Z,90.70
2018-08-16T06:47:05.064Z,90.90
2018-08-16T06:49:34.858Z,90.60
2018-08-16T06:52:05.030Z,89.90
2018-08-16T06:54:35.318Z,89.50
2018-08-16T06:57:05.903Z,89.10
2018-08-16T06:59:36.263Z,88.00
2018-08-16T07:02:06.514Z,87.40
2018-08-16T07:04:36.730Z,86.70
2018-08-16T07:07:06.870Z,86.10
2018-08-16T07:09:37.052Z,85.90
2018-08-16T07:12:07.594Z,85.70
2018-08-16T07:14:37.274Z,85.50
2018-08-16T07:17:07.592Z,85.10
2018-08-16T07:19:38.086Z,85.10
2018-08-16T07:22:08.648Z,83.90
2018-08-16T07:24:39.427Z,84.00
2018-08-16T07:27:09.974Z,83.10
2018-08-16T07:29:40.306Z,82.60
2018-08-16T07:32:10.869Z,81.90
2018-08-16T07:34:41.141Z,80.60
2018-08-16T07:37:11.061Z,80.50
2018-08-16T07:39:44.915Z,80.50
2018-08-16T07:42:15.718Z,81.20
2018-08-16T07:44:46.123Z,80.60
2018-08-16T07:47:17.724Z,80.60
2018-08-16T07:49:47.928Z,80.80
2018-08-16T07:52:18.526Z,80.40
2018-08-16T07:54:48.911Z,79.80
2018-08-16T07:57:19.065Z,78.90
2018-08-16T07:59:49.188Z,78.50
2018-08-16T08:02:19.899Z,77.90
2018-08-16T08:04:50.190Z,78.50
2018-08-16T08:07:20.292Z,77.70
2018-08-16T08:09:50.727Z,77.30
2018-08-16T08:12:25.383Z,77.70
2018-08-16T08:14:55.621Z,77.90
2018-08-16T08:17:26.563Z,77.10
2018-08-16T08:19:56.612Z,76.60
2018-08-16T08:22:26.618Z,77.00
2018-08-16T08:24:57.748Z,77.60
2018-08-16T08:27:28.004Z,77.70
2018-08-16T08:29:58.227Z,78.20
2018-08-16T08:32:28.233Z,77.60
2018-08-16T08:34:58.373Z,77.30
2018-08-16T08:37:39.679Z,77.50
2018-08-16T08:40:10.544Z,78.20
2018-08-16T08:42:40.594Z,78.50
2018-08-16T08:45:11.512Z,78.60
2018-08-16T08:47:47.533Z,78.60
2018-08-16T08:50:17.988Z,78.30
2018-08-16T08:52:48.163Z,78.30
2018-08-16T08:56:29.274Z,77.80
2018-08-16T08:59:00.377Z,77.50
2018-08-16T09:01:30.187Z,77.10
2018-08-16T09:04:00.558Z,76.40
2018-08-16T09:06:32.572Z,76.30
2018-08-16T09:09:02.694Z,75.90
2018-08-16T09:11:44.806Z,76.20
2018-08-16T09:14:25.498Z,75.90
2018-08-16T09:16:55.666Z,75.10
2018-08-16T09:19:26.128Z,74.20
2018-08-16T09:21:56.251Z,74.40
2018-08-16T09:24:26.162Z,74.10
2018-08-16T09:26:56.906Z,74.10
2018-08-16T09:30:42.273Z,74.00
2018-08-16T09:33:23.584Z,72.90
2018-08-16T09:35:54.083Z,69.90
2018-08-16T09:38:25.232Z,68.50
2018-08-16T09:40:55.272Z,67.00
2018-08-16T09:43:32.976Z,66.10
2018-08-16T09:47:14.515Z,65.90
2018-08-16T09:49:48.954Z,65.50
2018-08-16T09:52:20.097Z,65.40
2018-08-16T09:54:50.461Z,65.60
2018-08-16T09:57:20.955Z,64.60
2018-08-16T09:59:51.090Z,64.00
2018-08-16T10:02:21.678Z,64.30
2018-08-16T10:04:51.598Z,65.50
2018-08-16T10:07:21.530Z,65.10
2018-08-16T10:09:52.654Z,66.20
2018-08-16T10:12:22.464Z,65.70
2018-08-16T10:14:52.626Z,65.60
2018-08-16T10:17:22.979Z,65.20
2018-08-16T10:19:53.694Z,66.10
2018-08-16T10:22:23.872Z,66.30
2018-08-16T10:24:54.380Z,66.10
2018-08-16T10:27:24.681Z,64.80
2018-08-16T10:29:55.010Z,64.00
2018-08-16T10:32:24.894Z,62.60
2018-08-16T10:34:55.883Z,63.30
2018-08-16T10:37:27.054Z,63.20
2018-08-16T10:40:03.008Z,63.50
2018-08-16T10:42:34.199Z,63.80
2018-08-16T10:45:04.553Z,63.70
2018-08-16T10:47:35.264Z,63.40
2018-08-16T10:50:05.618Z,61.90
2018-08-16T10:52:36.376Z,61.00
2018-08-16T10:55:06.578Z,60.60
2018-08-16T10:57:36.853Z,60.30
2018-08-16T11:00:08.595Z,60.70
2018-08-16T11:02:38.905Z,60.60
2018-08-16T11:05:09.483Z,60.70
2018-08-16T11:07:40.061Z,59.60
2018-08-16T11:10:09.774Z,59.20
2018-08-16T11:12:41.175Z,58.80
2018-08-16T11:15:11.399Z,60.00
2018-08-16T11:17:41.236Z,60.60
2018-08-16T11:20:11.723Z,60.70
2018-08-16T11:22:42.605Z,60.10
2018-08-16T11:25:13.167Z,60.80
2018-08-16T11:27:43.255Z,60.30
2018-08-16T11:30:13.565Z,59.30
2018-08-16T11:32:44.031Z,59.70
2018-08-16T11:35:13.874Z,60.50
2018-08-16T11:37:44.409Z,60.00
2018-08-16T11:40:15.268Z,59.40
2018-08-16T11:42:44.837Z,58.20
2018-08-16T11:45:14.112Z,57.90
2018-08-16T11:47:42.871Z,57.10
2018-08-16T11:50:13.737Z,58.30
2018-08-16T11:52:44.500Z,58.70
2018-08-16T11:55:14.319Z,58.30
2018-08-16T11:57:45.090Z,57.80
2018-08-16T12:00:15.006Z,58.60
2018-08-16T12:02:45.266Z,58.80
2018-08-16T12:05:15.368Z,58.80
2018-08-16T12:07:45.725Z,58.70
2018-08-16T12:10:15.740Z,58.90
2018-08-16T12:12:45.280Z,57.50
2018-08-16T12:15:15.126Z,56.80
2018-08-16T12:17:44.996Z,56.90
2018-08-16T12:20:14.852Z,56.90
2018-08-16T12:22:44.825Z,57.00
2018-08-16T12:25:14.593Z,58.30
2018-08-16T12:27:45.276Z,58.70
2018-08-16T12:30:15.359Z,58.00
2018-08-16T12:32:45.690Z,57.40
2018-08-16T12:35:15.408Z,56.60
2018-08-16T12:37:51.398Z,56.10
2018-08-16T12:40:21.415Z,55.50
2018-08-16T12:42:52.251Z,55.90
2018-08-16T12:45:22.169Z,54.40
2018-08-16T12:47:52.573Z,54.90
2018-08-16T12:50:22.946Z,55.30
2018-08-16T12:52:52.687Z,56.00
2018-08-16T12:55:22.879Z,56.40
2018-08-16T12:57:52.768Z,56.40
2018-08-16T13:00:22.987Z,55.70
2018-08-16T13:02:53.315Z,55.00
2018-08-16T13:05:23.491Z,54.40
2018-08-16T13:07:53.381Z,54.70
2018-08-16T13:10:23.735Z,54.20
2018-08-16T13:12:53.851Z,54.50
2018-08-16T13:15:24.223Z,54.90
2018-08-16T13:17:56.567Z,55.40
2018-08-16T13:20:25.899Z,54.90
2018-08-16T13:22:55.933Z,54.40
2018-08-16T13:25:25.484Z,53.90
2018-08-16T13:27:54.763Z,54.10
2018-08-16T13:30:24.919Z,54.10
2018-08-16T13:32:54.914Z,54.10
2018-08-16T13:35:23.576Z,54.10
2018-08-16T13:37:55.349Z,53.30
2018-08-16T13:40:25.924Z,53.20
2018-08-16T13:42:56.364Z,51.90
2018-08-16T13:45:26.832Z,51.40
2018-08-16T13:47:56.756Z,50.90
2018-08-16T13:50:26.524Z,50.80
2018-08-16T13:52:56.914Z,50.20
2018-08-16T13:55:31.217Z,50.10
2018-08-16T13:58:01.569Z,51.20
2018-08-16T14:00:32.143Z,51.80
2018-08-16T14:03:00.892Z,52.10
2018-08-16T14:05:44.975Z,52.10
2018-08-16T14:08:15.452Z,51.90
2018-08-16T14:10:47.963Z,51.20
2018-08-16T14:13:18.073Z,51.20
2018-08-16T14:15:48.241Z,50.20
2018-08-16T14:18:17.937Z,49.70
2018-08-16T14:20:48.376Z,48.60
2018-08-16T14:23:18.515Z,48.50
2018-08-16T14:25:50.351Z,49.20
2018-08-16T14:28:20.559Z,49.50
2018-08-16T14:30:50.883Z,50.20
2018-08-16T14:33:20.740Z,51.20
2018-08-16T14:35:50.561Z,50.80
2018-08-16T14:38:21.565Z,50.40
2018-08-16T14:40:52.680Z,50.30
2018-08-16T14:43:22.836Z,50.40
2018-08-16T14:45:52.470Z,50.70
2018-08-16T14:48:22.646Z,50.70
2018-08-16T14:50:53.104Z,50.80
2018-08-16T14:53:23.887Z,51.00
2018-08-16T14:55:54.476Z,50.70
2018-08-16T14:58:35.558Z,51.90
2018-08-16T15:01:06.177Z,51.90
2018-08-16T15:03:37.891Z,52.20
2018-08-16T15:06:08.900Z,52.50
2018-08-16T15:08:40.305Z,51.90
2018-08-16T15:11:11.761Z,51.70
2018-08-16T15:13:43.603Z,50.30
2018-08-16T15:16:15.524Z,50.10
2018-08-16T15:18:46.401Z,49.10
2018-08-16T15:21:17.062Z,49.20
2018-08-16T15:23:47.153Z,49.20
2018-08-16T15:26:18.038Z,49.30
2018-08-16T15:28:49.260Z,50.50
2018-08-16T15:31:20.043Z,50.80
2018-08-16T15:33:51.272Z,49.90
2018-08-16T15:36:21.696Z,49.60
2018-08-16T15:38:54.282Z,50.20
2018-08-16T15:41:24.405Z,50.50
2018-08-16T15:43:55.162Z,51.20
2018-08-16T15:46:25.911Z,51.60
2018-08-16T15:48:58.035Z,51.70
2018-08-16T15:51:28.995Z,52.70
2018-08-16T15:53:59.727Z,52.70
2018-08-16T15:56:30.405Z,51.90
2018-08-16T15:59:01.349Z,51.80
2018-08-16T16:01:31.750Z,51.40
2018-08-16T16:04:01.629Z,51.70
2018-08-16T16:06:32.307Z,51.20
2018-08-16T16:09:02.304Z,51.40
2018-08-16T16:11:33.188Z,51.10
2018-08-16T16:14:03.368Z,50.50
2018-08-16T16:16:33.664Z,49.70
2018-08-16T16:19:03.013Z,50.00
2018-08-16T16:21:36.674Z,50.00
2018-08-16T16:24:08.905Z,50.00
2018-08-16T16:26:40.381Z,49.90
2018-08-16T16:29:11.553Z,49.70
2018-08-16T16:31:45.185Z,49.10
2018-08-16T16:34:18.902Z,49.20
2018-08-16T16:36:53.943Z,48.70
2018-08-16T16:39:26.192Z,49.20
2018-08-16T16:41:58.312Z,49.70
2018-08-16T16:44:29.392Z,50.70
2018-08-16T16:47:00.371Z,51.70
2018-08-16T16:49:32.543Z,52.00
2018-08-16T16:52:04.471Z,52.90
2018-08-16T16:54:36.512Z,53.30
2018-08-16T16:57:08.147Z,53.60
2018-08-16T16:59:38.117Z,53.40
2018-08-16T17:02:08.785Z,53.70
2018-08-16T17:04:39.504Z,53.50
2018-08-16T17:07:10.578Z,53.20
2018-08-16T17:09:39.883Z,53.20
2018-08-16T17:12:11.067Z,53.70
2018-08-16T17:14:45.100Z,53.90
2018-08-16T17:17:16.611Z,54.10
2018-08-16T17:19:48.015Z,54.30
2018-08-16T17:22:19.183Z,54.60
2018-08-16T17:24:57.386Z,55.20
2018-08-16T17:27:28.066Z,55.90
2018-08-16T17:30:00.959Z,56.90
2018-08-16T17:32:30.923Z,58.20
2018-08-16T17:35:08.266Z,59.40
2018-08-16T17:37:38.614Z,60.50
2018-08-16T17:40:09.630Z,61.10
2018-08-16T17:42:39.950Z,62.10
2018-08-16T17:45:16.299Z,62.40
2018-08-16T17:47:47.655Z,63.10
2018-08-16T17:50:20.603Z,63.80
2018-08-16T17:52:52.282Z,63.80
2018-08-16T17:55:29.415Z,64.20
2018-08-16T17:58:00.724Z,64.30
2018-08-16T18:00:32.592Z,64.50
2018-08-16T18:03:09.373Z,64.90
2018-08-16T18:05:42.619Z,64.90
2018-08-16T18:08:15.074Z,65.20
2018-08-16T18:10:47.937Z,66.00
2018-08-16T18:13:19.789Z,66.40
2018-08-16T18:15:51.432Z,66.80
2018-08-16T18:18:23.807Z,67.10
2018-08-16T18:20:55.832Z,67.80
2018-08-16T18:23:28.040Z,68.10
2018-08-16T18:25:59.342Z,68.40
2018-08-16T18:28:31.956Z,68.70
2018-08-16T18:31:06.121Z,69.00
2018-08-16T18:33:39.942Z,69.50
2018-08-16T18:36:12.299Z,69.80
2018-08-16T18:38:46.291Z,70.00
2018-08-16T18:41:19.949Z,70.40
2018-08-16T18:43:52.569Z,70.70
2018-08-16T18:46:24.026Z,70.90
2018-08-16T18:48:57.535Z,71.30
2018-08-16T18:51:38.489Z,71.60
2018-08-16T18:54:11.892Z,72.10
2018-08-16T18:56:43.950Z,72.40
2018-08-16T18:59:16.098Z,72.80
2018-08-16T19:01:47.090Z,72.90
2018-08-16T19:04:20.346Z,73.00
2018-08-16T19:06:53.996Z,73.30
2018-08-16T19:09:25.457Z,73.50
2018-08-16T19:11:56.699Z,73.90
2018-08-16T19:14:28.796Z,74.40
2018-08-16T19:17:00.812Z,74.50
2018-08-16T19:19:34.088Z,75.20
2018-08-16T19:22:05.866Z,75.70
2018-08-16T19:24:37.202Z,76.10
2018-08-16T19:27:06.852Z,76.50
2018-08-16T19:29:41.889Z,76.80
2018-08-16T19:32:14.541Z,76.80
2018-08-16T19:34:49.551Z,77.00
2018-08-16T19:37:20.950Z,77.40
2018-08-16T19:39:52.443Z,77.50
2018-08-16T19:42:24.259Z,77.60
2018-08-16T19:44:56.104Z,77.40
2018-08-16T19:47:27.592Z,77.80
2018-08-16T19:49:58.481Z,78.20
2018-08-16T19:52:29.347Z,78.20
2018-08-16T19:55:09.087Z,78.20
2018-08-16T19:57:41.299Z,78.40
2018-08-16T20:00:12.933Z,78.80
2018-08-16T20:02:43.084Z,79.00
2018-08-16T20:05:14.347Z,79.30
2018-08-16T20:07:43.243Z,79.50
2018-08-16T20:10:14.629Z,79.60
2018-08-16T20:12:50.442Z,80.10
2018-08-16T20:15:23.333Z,80.50
2018-08-16T20:17:54.521Z,80.10
2018-08-16T20:20:29.283Z,80.00
2018-08-16T20:23:08.726Z,80.40
2018-08-16T20:25:40.687Z,80.40
2018-08-16T20:28:23.433Z,80.50
2018-08-16T20:30:54.912Z,80.60
2018-08-16T20:33:26.688Z,81.00
2018-08-16T20:35:58.121Z,81.00
2018-08-16T20:38:30.324Z,81.00
2018-08-16T20:41:02.320Z,81.60
2018-08-16T20:43:33.018Z,81.70
2018-08-16T20:46:08.146Z,82.00
2018-08-16T20:48:41.823Z,82.00
2018-08-16T20:51:18.349Z,82.00
2018-08-16T20:53:53.259Z,82.40
2018-08-16T20:56:25.864Z,82.90
2018-08-16T20:58:56.315Z,82.90
2018-08-16T21:01:30.028Z,83.10
2018-08-16T21:04:02.311Z,83.50
2018-08-16T21:06:35.777Z,83.70
2018-08-16T21:09:10.804Z,84.00
2018-08-16T21:11:43.352Z,84.10
2018-08-16T21:14:17.363Z,84.40
2018-08-16T21:16:49.696Z,84.40
2018-08-16T21:19:22.916Z,84.90
2018-08-16T21:21:56.019Z,84.90
2018-08-16T21:24:27.837Z,84.30
2018-08-16T21:26:59.877Z,84.60
2018-08-16T21:29:31.475Z,84.60
2018-08-16T21:32:07.285Z,84.90
2018-08-16T21:34:40.555Z,85.20
2018-08-16T21:37:11.647Z,85.30
2018-08-16T21:39:49.590Z,85.10
2018-08-16T21:42:21.580Z,85.30
2018-08-16T21:44:52.181Z,85.70
2018-08-16T21:47:22.479Z,85.90
2018-08-16T21:49:55.655Z,85.50
2018-08-16T21:52:27.451Z,85.90
2018-08-16T21:54:59.014Z,85.90
2018-08-16T21:57:31.184Z,85.90
2018-08-16T22:00:03.550Z,85.70
2018-08-16T22:02:36.494Z,86.00
2018-08-16T22:05:08.670Z,86.10
2018-08-16T22:08:51.634Z,86.20
